x

Destruction Island, Wa (desw1) Weather Station

10:00 - Mon 23rd Jan 2017 All times are PST. -8 hours from GMT.

  • Wind
    9mph, 10mph gusts
  • Luft Temp 43°f
  • Sea Pressure 1009mb
  • Destruction Island, Wa
  • Destruction Island, Wa

More Historic Weather Station data

Upgrade to MSW Pro to gain access to the past 30 days of data for over 8000 Wavebouys and Weather Stations around the globe.

Join Pro

Comparision Forecast

View Surf forecast
   
Mo 01/23 10:00 9 10 mph 1009mb 43f
9:00 15 18 mph 1007.8mb 42f
8:00 13 15 mph 1006.6mb 40f
7:00 11 13 mph 1005.7mb 41f
6:00 11 13 mph 1004.8mb 41f
5:00 10 13 mph 1003.9mb 41f
4:00 13 14 mph 1003.4mb 42f
3:00 10 11 mph 1002.9mb 42f
2:00 10 11 mph 1002.1mb 44f
1:00 16 18 mph 1001.6mb 43f
12:00 16 17 mph 1001.3mb 46f
So 01/22 11:00 20 21 mph 1001mb 46f
10:00 18 20 mph 1000.2mb 46f
9:00 17 20 mph 999.9mb 46f
8:00 10 13 mph 999.8mb 44f
7:00 13 14 mph 999.4mb 45f
6:00 23 26 mph 998.6mb 44f
5:00 23 24 mph 998.4mb 44f
4:00 43 51 mph 998.3mb 43f
3:00 24 26 mph 997.7mb 46f
2:00 26 30 mph 997.6mb 45f
1:00 33 40 mph 998.1mb 43f
12:00 30 36 mph 996.8mb 46f
11:00 33 34 mph 996.6mb 45f
10:00 30 33 mph 995.7mb 45f
9:00 30 33 mph 994.7mb 43f
8:00 32 34 mph 993.9mb 45f
7:00 33 37 mph 993.6mb 46f
6:00 16
mph
992.3mb 46f
5:00 7 9 mph 993.1mb 45f
4:00 11 16 mph 993.9mb 44f
3:00 15 16 mph 995.6mb 44f
2:00 21 25 mph 997.2mb 46f
1:00 21 22 mph 998.3mb 45f
12:00 23 25 mph 999mb 45f
Sa 01/21 11:00 29 31 mph 999.3mb 44f
10:00 21 23 mph 999.1mb 46f
9:00 22 24 mph 999.1mb 45f
8:00 24 26 mph 999.3mb 45f
7:00 23 24 mph 998.6mb 44f
6:00 26 29 mph 997.9mb 45f
5:00 15 16 mph 997mb 46f
4:00 14 15 mph 996.2mb 47f
3:00 13 14 mph 995.6mb 47f
2:00 11 13 mph 994.9mb 46f
1:00 24 26 mph 994.2mb 44f
12:00 23 25 mph 994.1mb 44f
11:00 23 28 mph 993.3mb 46f
10:00 24 25 mph 992.5mb 46f
9:00 20 22 mph 991.7mb 45f
8:00 21 22 mph 991mb 45f
7:00 21 22 mph 990.3mb 45f
6:00 21 22 mph 989.7mb 46f
5:00 18 20 mph 989.3mb 46f
4:00 14 15 mph 989.2mb 45f
3:00 18 20 mph 988.8mb 46f
2:00 15 16 mph 988.3mb 46f
1:00 13 15 mph 987.9mb 46f
12:00 18 21 mph 987.5mb 46f
Fr 01/20 11:00 18 21 mph 987.1mb 46f
10:00 20 23 mph 986.7mb 46f
9:00 22 23 mph 986.4mb 45f
8:00 24 29 mph 986mb 44f
7:00 24 28 mph 985.6mb 44f
6:00 23 25 mph 985.3mb 44f
5:00 18 20 mph 984.8mb 45f
4:00 17 20 mph 984.7mb 45f
3:00 24 26 mph 984.2mb 46f
2:00 23 24 mph 983.9mb 47f
1:00 28 31 mph 983.7mb 49f
12:00 6 8 mph 983.9mb 48f
11:00 15 17 mph 984.2mb 45f
10:00 14 15 mph 984.4mb 43f
9:00 15 17 mph 984.3mb 42f
8:00 15 18 mph 984.6mb 42f
7:00 16 20 mph 985.3mb 41f
6:00 16 18 mph 986.4mb 42f
5:00 16 17 mph 987.5mb 43f
4:00 11 14 mph 988.9mb 45f
3:00 21 22 mph 990.2mb 46f
2:00 26 29 mph 991.1mb 46f
1:00 23 26 mph 992.3mb 45f
12:00 29 31 mph 993.4mb 45f
Do 01/19 11:00 29 30 mph 994.4mb 44f
10:00 25 28 mph 995mb 45f
9:00 21 23 mph 995.4mb 45f
8:00 22 28 mph 996mb 46f